sensor_id;sensor_type;location;lat;lon;timestamp;pressure;altitude;pressure_sealevel;temperature;humidity
30935;BME280;51033;42.648;23.292;2024-02-15T00:01:04;94236.91;;;3.07;49.42
30935;BME280;51033;42.648;23.292;2024-02-15T00:03:30;94232.44;;;3.08;49.14
30935;BME280;51033;42.648;23.292;2024-02-15T00:05:57;94233.19;;;2.98;49.36
30935;BME280;51033;42.648;23.292;2024-02-15T00:08:22;94225.63;;;2.70;50.02
30935;BME280;51033;42.648;23.292;2024-02-15T00:10:50;94229.84;;;2.71;50.22
30935;BME280;51033;42.648;23.292;2024-02-15T00:13:15;94232.34;;;2.92;49.80
30935;BME280;51033;42.648;23.292;2024-02-15T00:15:41;94234.16;;;2.87;49.76
30935;BME280;51033;42.648;23.292;2024-02-15T00:18:06;94237.34;;;2.89;49.80
30935;BME280;51033;42.648;23.292;2024-02-15T00:20:32;94230.50;;;2.88;49.71
30935;BME280;51033;42.648;23.292;2024-02-15T00:22:59;94227.84;;;2.83;49.84
30935;BME280;51033;42.648;23.292;2024-02-15T00:25:24;94247.19;;;2.72;50.09
30935;BME280;51033;42.648;23.292;2024-02-15T00:27:51;94215.91;;;2.65;50.05
30935;BME280;51033;42.648;23.292;2024-02-15T00:30:16;94247.31;;;2.92;49.46
30935;BME280;51033;42.648;23.292;2024-02-15T00:32:42;94246.50;;;2.86;49.75
30935;BME280;51033;42.648;23.292;2024-02-15T00:35:07;94249.50;;;3.05;49.36
30935;BME280;51033;42.648;23.292;2024-02-15T00:37:35;94249.97;;;2.97;49.33
30935;BME280;51033;42.648;23.292;2024-02-15T00:40:02;94231.59;;;2.97;49.22
30935;BME280;51033;42.648;23.292;2024-02-15T00:42:30;94253.69;;;3.01;49.10
30935;BME280;51033;42.648;23.292;2024-02-15T00:44:58;94256.94;;;3.18;48.97
30935;BME280;51033;42.648;23.292;2024-02-15T00:47:24;94243.25;;;3.16;49.14
30935;BME280;51033;42.648;23.292;2024-02-15T00:49:49;94235.81;;;2.98;49.00
30935;BME280;51033;42.648;23.292;2024-02-15T00:52:16;94252.75;;;3.22;48.75
30935;BME280;51033;42.648;23.292;2024-02-15T00:54:42;94243.84;;;3.38;48.30
30935;BME280;51033;42.648;23.292;2024-02-15T00:57:08;94247.69;;;3.16;48.76
30935;BME280;51033;42.648;23.292;2024-02-15T00:59:33;94239.22;;;2.99;49.00
30935;BME280;51033;42.648;23.292;2024-02-15T01:02:01;94244.31;;;3.25;48.49
30935;BME280;51033;42.648;23.292;2024-02-15T01:04:27;94233.25;;;3.13;48.51
30935;BME280;51033;42.648;23.292;2024-02-15T01:06:53;94255.44;;;3.37;48.61
30935;BME280;51033;42.648;23.292;2024-02-15T01:09:18;94238.06;;;3.31;48.54
30935;BME280;51033;42.648;23.292;2024-02-15T01:11:44;94231.41;;;3.19;48.39
30935;BME280;51033;42.648;23.292;2024-02-15T01:14:09;94248.31;;;3.33;48.53
30935;BME280;51033;42.648;23.292;2024-02-15T01:16:35;94232.56;;;3.43;48.29
30935;BME280;51033;42.648;23.292;2024-02-15T01:19:02;94244.66;;;3.44;48.03
30935;BME280;51033;42.648;23.292;2024-02-15T01:21:27;94245.31;;;3.14;48.21
30935;BME280;51033;42.648;23.292;2024-02-15T01:23:53;94239.75;;;3.01;48.95
30935;BME280;51033;42.648;23.292;2024-02-15T01:26:19;94245.06;;;3.11;49.14
30935;BME280;51033;42.648;23.292;2024-02-15T01:28:45;94240.00;;;2.99;49.14
30935;BME280;51033;42.648;23.292;2024-02-15T01:31:11;94236.63;;;3.09;48.67
30935;BME280;51033;42.648;23.292;2024-02-15T01:33:37;94245.31;;;3.14;48.61
30935;BME280;51033;42.648;23.292;2024-02-15T01:36:03;94217.66;;;2.96;48.79
30935;BME280;51033;42.648;23.292;2024-02-15T01:38:29;94240.13;;;3.24;48.76
30935;BME280;51033;42.648;23.292;2024-02-15T01:40:54;94211.69;;;3.11;48.25
30935;BME280;51033;42.648;23.292;2024-02-15T01:43:20;94242.22;;;3.22;48.44
30935;BME280;51033;42.648;23.292;2024-02-15T01:45:45;94246.44;;;3.28;48.59
30935;BME280;51033;42.648;23.292;2024-02-15T01:48:13;94243.25;;;3.16;48.52
30935;BME280;51033;42.648;23.292;2024-02-15T01:50:39;94213.72;;;2.99;48.59
30935;BME280;51033;42.648;23.292;2024-02-15T01:53:07;94248.59;;;3.36;48.00
30935;BME280;51033;42.648;23.292;2024-02-15T01:55:33;94248.03;;;3.29;48.49
30935;BME280;51033;42.648;23.292;2024-02-15T01:58:00;94235.97;;;3.38;48.50
30935;BME280;51033;42.648;23.292;2024-02-15T02:00:26;94242.78;;;3.34;48.33
30935;BME280;51033;42.648;23.292;2024-02-15T02:02:53;94246.50;;;3.49;48.17
30935;BME280;51033;42.648;23.292;2024-02-15T02:05:19;94247.53;;;3.37;48.52
30935;BME280;51033;42.648;23.292;2024-02-15T02:07:45;94237.06;;;3.53;48.19
30935;BME280;51033;42.648;23.292;2024-02-15T02:10:11;94229.72;;;3.55;47.58
30935;BME280;51033;42.648;23.292;2024-02-15T02:12:38;94226.03;;;3.51;47.50
30935;BME280;51033;42.648;23.292;2024-02-15T02:15:08;94249.63;;;3.35;47.91
30935;BME280;51033;42.648;23.292;2024-02-15T02:17:33;94247.78;;;3.36;48.19
30935;BME280;51033;42.648;23.292;2024-02-15T02:20:01;94247.47;;;3.22;48.42
30935;BME280;51033;42.648;23.292;2024-02-15T02:22:26;94257.00;;;3.38;48.10
30935;BME280;51033;42.648;23.292;2024-02-15T02:25:08;94256.53;;;3.52;47.51
30935;BME280;51033;42.648;23.292;2024-02-15T02:27:34;94217.38;;;2.93;48.05
30935;BME280;51033;42.648;23.292;2024-02-15T02:30:03;94245.22;;;2.94;48.79
30935;BME280;51033;42.648;23.292;2024-02-15T02:32:32;94249.50;;;3.10;48.90
30935;BME280;51033;42.648;23.292;2024-02-15T02:34:59;94228.91;;;2.87;48.68
30935;BME280;51033;42.648;23.292;2024-02-15T02:37:24;94263.19;;;3.12;48.56
30935;BME280;51033;42.648;23.292;2024-02-15T02:39:50;94257.25;;;2.85;48.81
30935;BME280;51033;42.648;23.292;2024-02-15T02:42:15;94266.59;;;3.08;48.53
30935;BME280;51033;42.648;23.292;2024-02-15T02:44:41;94242.63;;;2.99;48.39
30935;BME280;51033;42.648;23.292;2024-02-15T02:47:06;94255.00;;;2.62;48.93
30935;BME280;51033;42.648;23.292;2024-02-15T02:49:32;94253.00;;;2.74;49.08
30935;BME280;51033;42.648;23.292;2024-02-15T02:52:00;94262.53;;;2.90;49.14
30935;BME280;51033;42.648;23.292;2024-02-15T02:54:25;94260.28;;;2.67;49.35
30935;BME280;51033;42.648;23.292;2024-02-15T02:56:50;94254.66;;;2.90;49.26
30935;BME280;51033;42.648;23.292;2024-02-15T02:59:16;94262.72;;;3.25;48.21
30935;BME280;51033;42.648;23.292;2024-02-15T03:01:41;94251.16;;;3.21;47.70
30935;BME280;51033;42.648;23.292;2024-02-15T03:04:07;94264.50;;;3.10;48.34
30935;BME280;51033;42.648;23.292;2024-02-15T03:06:33;94265.81;;;3.07;48.19
30935;BME280;51033;42.648;23.292;2024-02-15T03:08:59;94255.16;;;2.82;48.82
30935;BME280;51033;42.648;23.292;2024-02-15T03:11:24;94253.81;;;2.79;48.97
30935;BME280;51033;42.648;23.292;2024-02-15T03:13:50;94268.41;;;3.02;49.01
30935;BME280;51033;42.648;23.292;2024-02-15T03:16:15;94237.75;;;2.76;48.92
30935;BME280;51033;42.648;23.292;2024-02-15T03:18:42;94264.09;;;2.86;48.88
30935;BME280;51033;42.648;23.292;2024-02-15T03:21:07;94252.53;;;2.82;48.80
30935;BME280;51033;42.648;23.292;2024-02-15T03:23:36;94275.69;;;2.90;49.16
30935;BME280;51033;42.648;23.292;2024-02-15T03:26:02;94272.00;;;2.91;48.72
30935;BME280;51033;42.648;23.292;2024-02-15T03:28:29;94275.47;;;2.96;48.94
30935;BME280;51033;42.648;23.292;2024-02-15T03:30:54;94277.81;;;2.93;48.88
30935;BME280;51033;42.648;23.292;2024-02-15T03:33:21;94283.47;;;3.17;48.68
30935;BME280;51033;42.648;23.292;2024-02-15T03:35:51;94283.03;;;3.35;48.31
30935;BME280;51033;42.648;23.292;2024-02-15T03:38:17;94277.22;;;3.38;48.07
30935;BME280;51033;42.648;23.292;2024-02-15T03:40:42;94266.16;;;3.26;48.17
30935;BME280;51033;42.648;23.292;2024-02-15T03:43:08;94277.16;;;3.18;48.30
30935;BME280;51033;42.648;23.292;2024-02-15T03:45:33;94259.50;;;3.08;48.68
30935;BME280;51033;42.648;23.292;2024-02-15T03:47:59;94282.00;;;2.94;49.34
30935;BME280;51033;42.648;23.292;2024-02-15T03:50:24;94270.47;;;3.00;49.32
30935;BME280;51033;42.648;23.292;2024-02-15T03:52:50;94279.53;;;3.24;49.02
30935;BME280;51033;42.648;23.292;2024-02-15T03:55:16;94277.22;;;3.38;48.96
30935;BME280;51033;42.648;23.292;2024-02-15T03:57:41;94275.69;;;3.42;48.55
30935;BME280;51033;42.648;23.292;2024-02-15T04:00:09;94275.47;;;3.54;48.28
30935;BME280;51033;42.648;23.292;2024-02-15T04:02:36;94275.88;;;3.25;47.82
30935;BME280;51033;42.648;23.292;2024-02-15T04:05:02;94277.91;;;3.08;48.36
30935;BME280;51033;42.648;23.292;2024-02-15T04:07:30;94267.84;;;3.00;48.76
30935;BME280;51033;42.648;23.292;2024-02-15T04:09:56;94257.38;;;3.05;48.04
30935;BME280;51033;42.648;23.292;2024-02-15T04:12:21;94284.84;;;3.34;47.93
30935;BME280;51033;42.648;23.292;2024-02-15T04:14:47;94268.00;;;3.25;47.69
30935;BME280;51033;42.648;23.292;2024-02-15T04:17:14;94279.53;;;3.24;47.77
30935;BME280;51033;42.648;23.292;2024-02-15T04:19:43;94281.16;;;2.83;48.68
30935;BME280;51033;42.648;23.292;2024-02-15T04:22:09;94292.91;;;2.76;49.39
30935;BME280;51033;42.648;23.292;2024-02-15T04:24:35;94293.28;;;2.89;48.92
30935;BME280;51033;42.648;23.292;2024-02-15T04:27:08;94297.41;;;2.80;48.97
30935;BME280;51033;42.648;23.292;2024-02-15T04:29:38;94288.63;;;2.65;49.11
30935;BME280;51033;42.648;23.292;2024-02-15T04:32:07;94283.78;;;2.46;49.69
30935;BME280;51033;42.648;23.292;2024-02-15T04:34:34;94283.94;;;2.67;49.30
30935;BME280;51033;42.648;23.292;2024-02-15T04:36:59;94297.09;;;2.72;49.32
30935;BME280;51033;42.648;23.292;2024-02-15T04:39:26;94309.91;;;2.31;49.97
30935;BME280;51033;42.648;23.292;2024-02-15T04:41:55;94297.84;;;2.30;49.98
30935;BME280;51033;42.648;23.292;2024-02-15T04:44:21;94301.13;;;2.21;50.25
30935;BME280;51033;42.648;23.292;2024-02-15T04:46:48;94299.81;;;2.18;50.63
30935;BME280;51033;42.648;23.292;2024-02-15T04:49:14;94303.47;;;2.17;50.36
30935;BME280;51033;42.648;23.292;2024-02-15T04:51:40;94307.22;;;2.26;50.34
30935;BME280;51033;42.648;23.292;2024-02-15T04:54:07;94295.91;;;1.94;50.80
30935;BME280;51033;42.648;23.292;2024-02-15T04:56:33;94295.34;;;1.92;50.68
30935;BME280;51033;42.648;23.292;2024-02-15T04:58:58;94305.84;;;1.92;50.71
30935;BME280;51033;42.648;23.292;2024-02-15T05:01:24;94309.81;;;1.94;50.70
30935;BME280;51033;42.648;23.292;2024-02-15T05:03:49;94317.63;;;1.89;51.16
30935;BME280;51033;42.648;23.292;2024-02-15T05:06:14;94336.34;;;1.98;50.80
30935;BME280;51033;42.648;23.292;2024-02-15T05:08:40;94335.25;;;1.94;51.39
30935;BME280;51033;42.648;23.292;2024-02-15T05:11:12;94341.75;;;2.13;50.85
30935;BME280;51033;42.648;23.292;2024-02-15T05:13:43;94334.84;;;2.07;50.62
30935;BME280;51033;42.648;23.292;2024-02-15T05:16:10;94320.16;;;1.84;51.21
30935;BME280;51033;42.648;23.292;2024-02-15T05:18:36;94341.41;;;2.04;50.78
30935;BME280;51033;42.648;23.292;2024-02-15T05:21:03;94324.75;;;1.94;51.12
30935;BME280;51033;42.648;23.292;2024-02-15T05:23:29;94345.91;;;2.09;50.71
30935;BME280;51033;42.648;23.292;2024-02-15T05:25:54;94333.28;;;2.06;50.56
30935;BME280;51033;42.648;23.292;2024-02-15T05:28:21;94328.06;;;2.11;50.28
30935;BME280;51033;42.648;23.292;2024-02-15T05:31:14;94345.97;;;2.14;50.17
30935;BME280;51033;42.648;23.292;2024-02-15T05:33:48;94346.75;;;2.15;50.55
30935;BME280;51033;42.648;23.292;2024-02-15T05:36:14;94326.81;;;1.92;50.44
30935;BME280;51033;42.648;23.292;2024-02-15T05:38:40;94329.56;;;1.80;50.78
30935;BME280;51033;42.648;23.292;2024-02-15T05:41:06;94342.03;;;1.90;51.10
30935;BME280;51033;42.648;23.292;2024-02-15T05:43:34;94354.84;;;1.86;51.49
30935;BME280;51033;42.648;23.292;2024-02-15T05:46:04;94339.88;;;1.87;51.17
30935;BME280;51033;42.648;23.292;2024-02-15T05:48:32;94312.41;;;1.46;51.55
30935;BME280;51033;42.648;23.292;2024-02-15T05:51:03;94352.69;;;1.61;51.62
30935;BME280;51033;42.648;23.292;2024-02-15T05:53:29;94351.59;;;1.57;51.73
30935;BME280;51033;42.648;23.292;2024-02-15T05:55:55;94361.72;;;1.71;51.88
30935;BME280;51033;42.648;23.292;2024-02-15T05:58:25;94356.47;;;1.71;51.59
30935;BME280;51033;42.648;23.292;2024-02-15T06:00:51;94369.09;;;1.74;51.44
30935;BME280;51033;42.648;23.292;2024-02-15T06:03:17;94362.31;;;1.78;51.54
30935;BME280;51033;42.648;23.292;2024-02-15T06:05:43;94361.34;;;1.84;51.23
30935;BME280;51033;42.648;23.292;2024-02-15T06:08:09;94371.75;;;1.95;50.88
30935;BME280;51033;42.648;23.292;2024-02-15T06:10:36;94360.72;;;1.77;50.95
30935;BME280;51033;42.648;23.292;2024-02-15T06:13:01;94366.75;;;1.77;51.42
30935;BME280;51033;42.648;23.292;2024-02-15T06:15:27;94368.63;;;1.38;52.19
30935;BME280;51033;42.648;23.292;2024-02-15T06:17:52;94378.59;;;1.58;52.03
30935;BME280;51033;42.648;23.292;2024-02-15T06:20:18;94376.84;;;1.63;51.58
30935;BME280;51033;42.648;23.292;2024-02-15T06:22:45;94361.94;;;1.47;52.03
30935;BME280;51033;42.648;23.292;2024-02-15T06:25:12;94381.00;;;1.43;52.17
30935;BME280;51033;42.648;23.292;2024-02-15T06:27:38;94392.09;;;1.66;51.64
30935;BME280;51033;42.648;23.292;2024-02-15T06:30:10;94389.41;;;1.83;51.49
30935;BME280;51033;42.648;23.292;2024-02-15T06:32:54;94388.22;;;1.91;50.90
30935;BME280;51033;42.648;23.292;2024-02-15T06:35:38;94395.94;;;2.02;50.93
30935;BME280;51033;42.648;23.292;2024-02-15T06:38:23;94396.34;;;2.16;51.11
30935;BME280;51033;42.648;23.292;2024-02-15T06:41:07;94401.91;;;2.46;49.76
30935;BME280;51033;42.648;23.292;2024-02-15T06:43:34;94396.97;;;2.23;49.97
30935;BME280;51033;42.648;23.292;2024-02-15T06:46:00;94389.44;;;2.05;50.84
30935;BME280;51033;42.648;23.292;2024-02-15T06:48:26;94405.81;;;2.17;50.68
30935;BME280;51033;42.648;23.292;2024-02-15T06:50:52;94404.38;;;2.04;50.23
30935;BME280;51033;42.648;23.292;2024-02-15T06:53:17;94396.25;;;2.06;50.38
30935;BME280;51033;42.648;23.292;2024-02-15T06:55:46;94374.69;;;1.82;50.63
30935;BME280;51033;42.648;23.292;2024-02-15T06:58:14;94402.59;;;2.10;50.35
30935;BME280;51033;42.648;23.292;2024-02-15T07:00:41;94415.47;;;2.12;50.29
30935;BME280;51033;42.648;23.292;2024-02-15T07:03:08;94409.81;;;1.98;50.39
30935;BME280;51033;42.648;23.292;2024-02-15T07:05:34;94411.34;;;2.16;50.20
30935;BME280;51033;42.648;23.292;2024-02-15T07:07:59;94402.47;;;2.22;50.56
30935;BME280;51033;42.648;23.292;2024-02-15T07:10:25;94375.88;;;2.13;50.51
30935;BME280;51033;42.648;23.292;2024-02-15T07:12:51;94405.53;;;2.40;49.62
30935;BME280;51033;42.648;23.292;2024-02-15T07:15:17;94396.16;;;2.44;49.96
30935;BME280;51033;42.648;23.292;2024-02-15T07:17:42;94399.31;;;2.46;49.58
30935;BME280;51033;42.648;23.292;2024-02-15T07:20:11;94399.97;;;2.59;49.27
30935;BME280;51033;42.648;23.292;2024-02-15T07:22:36;94397.19;;;2.43;49.43
30935;BME280;51033;42.648;23.292;2024-02-15T07:25:04;94385.38;;;2.46;49.37
30935;BME280;51033;42.648;23.292;2024-02-15T07:27:30;94394.41;;;2.28;50.00
30935;BME280;51033;42.648;23.292;2024-02-15T07:29:55;94385.69;;;2.49;49.48
30935;BME280;51033;42.648;23.292;2024-02-15T07:32:21;94393.19;;;2.41;49.91
30935;BME280;51033;42.648;23.292;2024-02-15T07:34:47;94392.13;;;2.64;49.03
30935;BME280;51033;42.648;23.292;2024-02-15T07:37:13;94382.06;;;2.56;49.20
30935;BME280;51033;42.648;23.292;2024-02-15T07:39:40;94386.56;;;2.60;48.96
30935;BME280;51033;42.648;23.292;2024-02-15T07:42:05;94381.00;;;2.57;49.07
30935;BME280;51033;42.648;23.292;2024-02-15T07:44:34;94381.16;;;2.72;48.77
30935;BME280;51033;42.648;23.292;2024-02-15T07:47:02;94380.59;;;2.70;48.09
30935;BME280;51033;42.648;23.292;2024-02-15T07:49:28;94379.09;;;2.74;48.69
30935;BME280;51033;42.648;23.292;2024-02-15T07:51:53;94393.19;;;2.68;48.81
30935;BME280;51033;42.648;23.292;2024-02-15T07:54:19;94385.78;;;2.60;48.77
30935;BME280;51033;42.648;23.292;2024-02-15T07:56:48;94380.91;;;2.73;48.23
30935;BME280;51033;42.648;23.292;2024-02-15T07:59:14;94333.13;;;2.44;48.40
30935;BME280;51033;42.648;23.292;2024-02-15T08:01:43;94379.22;;;2.89;48.15
30935;BME280;51033;42.648;23.292;2024-02-15T08:04:09;94386.63;;;2.97;48.09
30935;BME280;51033;42.648;23.292;2024-02-15T08:06:34;94376.59;;;2.89;48.31
30935;BME280;51033;42.648;23.292;2024-02-15T08:09:02;94366.50;;;2.81;48.58
30935;BME280;51033;42.648;23.292;2024-02-15T08:11:31;94351.53;;;2.81;48.50
30935;BME280;51033;42.648;23.292;2024-02-15T08:13:57;94368.19;;;2.92;48.83
30935;BME280;51033;42.648;23.292;2024-02-15T08:16:25;94378.53;;;3.09;48.85
30935;BME280;51033;42.648;23.292;2024-02-15T08:18:54;94381.06;;;2.93;48.73
30935;BME280;51033;42.648;23.292;2024-02-15T08:21:31;94371.56;;;2.87;48.94
30935;BME280;51033;42.648;23.292;2024-02-15T08:24:06;94376.22;;;3.12;48.79
30935;BME280;51033;42.648;23.292;2024-02-15T08:26:38;94382.50;;;3.11;48.26
30935;BME280;51033;42.648;23.292;2024-02-15T08:29:04;94363.22;;;2.95;48.81
30935;BME280;51033;42.648;23.292;2024-02-15T08:31:31;94367.78;;;3.10;48.55
30935;BME280;51033;42.648;23.292;2024-02-15T08:33:57;94369.25;;;2.96;49.59
30935;BME280;51033;42.648;23.292;2024-02-15T08:36:22;94366.75;;;3.11;49.32
30935;BME280;51033;42.648;23.292;2024-02-15T08:38:51;94356.69;;;2.98;48.95
30935;BME280;51033;42.648;23.292;2024-02-15T08:41:17;94373.50;;;3.02;49.26
30935;BME280;51033;42.648;23.292;2024-02-15T08:43:46;94333.78;;;2.93;48.61
30935;BME280;51033;42.648;23.292;2024-02-15T08:46:14;94365.16;;;3.10;48.96
30935;BME280;51033;42.648;23.292;2024-02-15T08:48:39;94344.66;;;3.07;48.77
30935;BME280;51033;42.648;23.292;2024-02-15T08:51:06;94355.41;;;3.48;48.34
30935;BME280;51033;42.648;23.292;2024-02-15T08:53:34;94358.59;;;3.60;48.35
30935;BME280;51033;42.648;23.292;2024-02-15T08:55:59;94349.16;;;3.64;47.88
30935;BME280;51033;42.648;23.292;2024-02-15T08:58:25;94360.22;;;3.66;48.51
30935;BME280;51033;42.648;23.292;2024-02-15T09:00:51;94352.38;;;3.76;48.29
30935;BME280;51033;42.648;23.292;2024-02-15T09:03:19;94337.78;;;3.53;48.31
30935;BME280;51033;42.648;23.292;2024-02-15T09:05:44;94357.94;;;3.90;47.88
30935;BME280;51033;42.648;23.292;2024-02-15T09:08:10;94356.13;;;3.90;48.32
30935;BME280;51033;42.648;23.292;2024-02-15T09:10:35;94357.66;;;3.81;48.62
30935;BME280;51033;42.648;23.292;2024-02-15T09:13:04;94352.75;;;4.05;47.50
30935;BME280;51033;42.648;23.292;2024-02-15T09:15:31;94349.88;;;4.21;47.84
30935;BME280;51033;42.648;23.292;2024-02-15T09:17:56;94352.97;;;3.98;47.63
30935;BME280;51033;42.648;23.292;2024-02-15T09:20:23;94342.25;;;4.15;48.21
30935;BME280;51033;42.648;23.292;2024-02-15T09:22:54;94339.81;;;3.98;47.44
30935;BME280;51033;42.648;23.292;2024-02-15T09:25:20;94341.94;;;4.06;47.60
30935;BME280;51033;42.648;23.292;2024-02-15T09:27:48;94344.56;;;4.11;47.06
30935;BME280;51033;42.648;23.292;2024-02-15T09:30:14;94341.38;;;3.89;48.13
30935;BME280;51033;42.648;23.292;2024-02-15T09:32:40;94341.66;;;4.03;47.72
30935;BME280;51033;42.648;23.292;2024-02-15T09:35:08;94337.75;;;4.10;47.77
30935;BME280;51033;42.648;23.292;2024-02-15T09:37:37;94325.84;;;3.98;47.71
30935;BME280;51033;42.648;23.292;2024-02-15T09:40:09;94337.22;;;4.18;47.93
30935;BME280;51033;42.648;23.292;2024-02-15T09:42:35;94336.72;;;4.26;47.51
30935;BME280;51033;42.648;23.292;2024-02-15T09:45:04;94329.59;;;4.17;47.84
30935;BME280;51033;42.648;23.292;2024-02-15T09:47:34;94336.25;;;4.30;47.34
30935;BME280;51033;42.648;23.292;2024-02-15T09:50:01;94329.94;;;4.31;47.59
30935;BME280;51033;42.648;23.292;2024-02-15T09:52:29;94334.41;;;4.35;47.22
30935;BME280;51033;42.648;23.292;2024-02-15T09:54:58;94347.31;;;4.47;47.57
30935;BME280;51033;42.648;23.292;2024-02-15T09:57:23;94342.06;;;4.47;47.28
30935;BME280;51033;42.648;23.292;2024-02-15T09:59:49;94311.50;;;4.56;47.20
30935;BME280;51033;42.648;23.292;2024-02-15T10:02:15;94326.25;;;4.77;46.71
30935;BME280;51033;42.648;23.292;2024-02-15T10:04:41;94319.94;;;4.93;46.97
30935;BME280;51033;42.648;23.292;2024-02-15T10:07:07;94322.03;;;4.51;47.05
30935;BME280;51033;42.648;23.292;2024-02-15T10:09:34;94282.25;;;4.42;47.52
30935;BME280;51033;42.648;23.292;2024-02-15T10:12:02;94316.25;;;4.89;47.35
30935;BME280;51033;42.648;23.292;2024-02-15T10:14:29;94317.81;;;4.85;46.80
30935;BME280;51033;42.648;23.292;2024-02-15T10:16:55;94289.91;;;4.79;46.40
30935;BME280;51033;42.648;23.292;2024-02-15T10:19:22;94293.84;;;4.77;46.41
30935;BME280;51033;42.648;23.292;2024-02-15T10:21:51;94285.16;;;4.86;46.99
30935;BME280;51033;42.648;23.292;2024-02-15T10:24:21;94302.28;;;4.99;47.07
30935;BME280;51033;42.648;23.292;2024-02-15T10:26:48;94295.66;;;5.01;46.86
30935;BME280;51033;42.648;23.292;2024-02-15T10:29:14;94280.41;;;4.88;46.49
30935;BME280;51033;42.648;23.292;2024-02-15T10:31:53;94264.34;;;4.75;46.85
30935;BME280;51033;42.648;23.292;2024-02-15T10:34:20;94294.63;;;5.07;46.79
30935;BME280;51033;42.648;23.292;2024-02-15T10:36:45;94291.19;;;5.02;46.45
30935;BME280;51033;42.648;23.292;2024-02-15T10:39:15;94284.88;;;4.98;46.55
30935;BME280;51033;42.648;23.292;2024-02-15T10:41:46;94287.22;;;4.99;47.43
30935;BME280;51033;42.648;23.292;2024-02-15T10:44:17;94279.84;;;5.11;46.56
30935;BME280;51033;42.648;23.292;2024-02-15T10:46:44;94273.53;;;4.92;47.12
30935;BME280;51033;42.648;23.292;2024-02-15T10:49:11;94278.78;;;5.18;46.86
30935;BME280;51033;42.648;23.292;2024-02-15T10:51:39;94273.69;;;5.36;46.73
30935;BME280;51033;42.648;23.292;2024-02-15T10:54:08;94281.44;;;5.07;47.42
30935;BME280;51033;42.648;23.292;2024-02-15T10:56:43;94278.78;;;5.18;46.85
30935;BME280;51033;42.648;23.292;2024-02-15T10:59:19;94278.22;;;5.21;47.23
30935;BME280;51033;42.648;23.292;2024-02-15T11:01:49;94269.25;;;5.22;47.50
30935;BME280;51033;42.648;23.292;2024-02-15T11:04:20;94272.09;;;5.40;46.87
30935;BME280;51033;42.648;23.292;2024-02-15T11:06:47;94270.16;;;5.66;45.85
30935;BME280;51033;42.648;23.292;2024-02-15T11:09:16;94256.69;;;5.68;46.20
30935;BME280;51033;42.648;23.292;2024-02-15T11:11:42;94264.00;;;5.86;45.78
30935;BME280;51033;42.648;23.292;2024-02-15T11:14:31;94255.34;;;5.75;45.65
30935;BME280;51033;42.648;23.292;2024-02-15T11:16:59;94253.69;;;5.89;45.92
30935;BME280;51033;42.648;23.292;2024-02-15T11:22:12;94259.63;;;6.10;45.20
30935;BME280;51033;42.648;23.292;2024-02-15T11:24:50;94251.69;;;6.20;44.55
30935;BME280;51033;42.648;23.292;2024-02-15T11:27:26;94253.69;;;6.33;44.14
30935;BME280;51033;42.648;23.292;2024-02-15T11:29:56;94257.75;;;6.21;44.45
30935;BME280;51033;42.648;23.292;2024-02-15T11:32:45;94255.06;;;6.26;44.10
30935;BME280;51033;42.648;23.292;2024-02-15T11:35:15;94253.94;;;6.32;44.36
30935;BME280;51033;42.648;23.292;2024-02-15T11:37:51;94243.28;;;6.47;44.13
30935;BME280;51033;42.648;23.292;2024-02-15T11:43:06;94242.06;;;6.34;43.37
30935;BME280;51033;42.648;23.292;2024-02-15T11:45:32;94231.81;;;6.28;43.73
30935;BME280;51033;42.648;23.292;2024-02-15T11:47:59;94241.47;;;6.42;43.61
30935;BME280;51033;42.648;23.292;2024-02-15T11:50:27;94255.38;;;6.53;43.63
30935;BME280;51033;42.648;23.292;2024-02-15T11:53:02;94242.59;;;6.65;43.39
30935;BME280;51033;42.648;23.292;2024-02-15T11:55:31;94243.03;;;6.77;42.88
30935;BME280;51033;42.648;23.292;2024-02-15T11:57:58;94244.09;;;6.76;42.95
30935;BME280;51033;42.648;23.292;2024-02-15T12:00:42;94226.97;;;6.98;42.74
30935;BME280;51033;42.648;23.292;2024-02-15T12:03:27;94227.50;;;6.95;42.09
30935;BME280;51033;42.648;23.292;2024-02-15T12:06:11;94238.63;;;6.68;43.04
30935;BME280;51033;42.648;23.292;2024-02-15T12:08:55;94234.13;;;6.97;43.26
30935;BME280;51033;42.648;23.292;2024-02-15T12:11:39;94233.28;;;7.02;42.58
30935;BME280;51033;42.648;23.292;2024-02-15T12:14:24;94214.91;;;6.86;42.41
30935;BME280;51033;42.648;23.292;2024-02-15T12:17:09;94186.44;;;6.78;42.51
30935;BME280;51033;42.648;23.292;2024-02-15T12:19:53;94223.16;;;7.09;42.87
30935;BME280;51033;42.648;23.292;2024-02-15T12:22:42;94223.69;;;7.29;42.67
30935;BME280;51033;42.648;23.292;2024-02-15T12:25:14;94199.50;;;6.94;41.87
30935;BME280;51033;42.648;23.292;2024-02-15T12:27:43;94217.41;;;7.25;41.64
30935;BME280;51033;42.648;23.292;2024-02-15T12:30:13;94210.84;;;7.23;41.55
30935;BME280;51033;42.648;23.292;2024-02-15T12:32:39;94209.88;;;7.38;42.28
30935;BME280;51033;42.648;23.292;2024-02-15T12:35:12;94203.53;;;7.57;41.41
30935;BME280;51033;42.648;23.292;2024-02-15T12:38:08;94217.84;;;7.56;41.57
30935;BME280;51033;42.648;23.292;2024-02-15T12:40:37;94209.41;;;7.30;41.65
30935;BME280;51033;42.648;23.292;2024-02-15T12:43:07;94206.81;;;7.49;41.24
30935;BME280;51033;42.648;23.292;2024-02-15T12:45:36;94209.97;;;7.51;41.30
30935;BME280;51033;42.648;23.292;2024-02-15T12:48:03;94200.97;;;7.52;41.20
30935;BME280;51033;42.648;23.292;2024-02-15T12:50:30;94205.25;;;7.48;41.78
30935;BME280;51033;42.648;23.292;2024-02-15T12:52:56;94201.84;;;7.66;41.37
30935;BME280;51033;42.648;23.292;2024-02-15T12:55:28;94200.94;;;7.76;41.73
30935;BME280;51033;42.648;23.292;2024-02-15T12:57:55;94200.28;;;7.84;41.97
30935;BME280;51033;42.648;23.292;2024-02-15T13:00:26;94177.94;;;7.71;41.43
30935;BME280;51033;42.648;23.292;2024-02-15T13:02:57;94206.13;;;7.62;41.24
30935;BME280;51033;42.648;23.292;2024-02-15T13:05:25;94189.69;;;7.84;40.98
30935;BME280;51033;42.648;23.292;2024-02-15T13:07:52;94183.19;;;7.95;41.01
30935;BME280;51033;42.648;23.292;2024-02-15T13:10:20;94173.00;;;7.84;40.77